Šumavský maraton
Location Kvilda Start Time 28.2.2010 10:03:18
Category závod
Distance 44,60 km Ascend 739,5 m Descend -695,9 m
Total Time 02:41:37 Moving 02:39:53 Stopped 00:01:44
Average Speed 16,6 km/h Fastest Speed 38,4 km/h Slowest Speed 0,1 km/h
Calories 3323 Average HR N/A Max HR N/A
Weather 2 °C Clouds
Equipment
Notes Po startu jsem byl nějakej zataženej, vůbec jsem nemoh, do toho mám už od čtvrtka kašel a včera jsem tomu rozhodně nepomoh... Prvních 9 ujelo v kopci tak po 2km, s nima Véna, já byl rád, že visím tu další skupinu o cca 15 lidech (byl tam i Globus). Z kopce mi to vůbec nejelo, soupalo to ale celkem dobřa. Sníh pomalej, pořád se muselo soupažit, nidke si člověk nevodfouk, ani ve sjezdech. Údolím dolů na Modravu od Ptačí nádrže jsem měl problémy je uviset, nejelo to. Z modravy už jswem se rozjel, začlo se to v kopci na Filipku trhat, já byl vzádu a zůstal v zadní skupině i s globusem, postupně jsem je předjel a za občerstvovačkou jsem jim ujel a na kopci si dojel tu první skupinu a s tou jel na zhůří. Tam jsme za to ve dvou vzali suopaž a u Matesa jsme byli už jen 4 s pěkným náskokem. Takhle jsme dojeli až na Horskou (na Zlatý studně jsem se z toho nemoh odrazit a myslel jsem že zdechnu, do toho občas nějaká křžeč do břicha...). Na Horskz najednou totálně rupnul ten kluk s kterým jsem to předtím tahal, tak jsem si chvíli odpočnul za tím vetošem nad 40 a 2 km před cílem jsem trochu zrychlil v soupaži a oni nejeli.. tak jsem trochu přiložil, udělal si náskok a na pohodu to dojel - v cíli 10. flek, první z tý naší velký skupiny. A pak jsem se skoro udusil kašlem a to trvalo až do středy.. takže 3 dny kurýrování, ve čt jsem se poprvé trochu hejbal, ve st jen gumy
Splits
Distance (km) Total Time Split Time Split Pace Split Speed Elevation Change (m)
1,00 00:04:19 00:04:19 00:04:19 13,9 21,71
2,00 00:09:24 00:05:05 00:05:05 11,8 60,51
3,00 00:13:03 00:03:39 00:03:39 16,4 4,33
4,00 00:16:44 00:03:41 00:03:41 16,3 12,76
5,00 00:21:18 00:04:34 00:04:34 13,1 23,17
6,00 00:23:42 00:02:24 00:02:24 25,0 -49,07
7,00 00:26:36 00:02:54 00:02:54 20,7 -31,07
8,00 00:30:29 00:03:53 00:03:53 15,5 22,70
9,00 00:35:19 00:04:50 00:04:50 12,4 47,05
10,00 00:38:12 00:02:53 00:02:53 20,8 -15,00
11,00 00:40:49 00:02:37 00:02:37 22,9 -29,40
12,00 00:44:37 00:03:48 00:03:48 15,8 16,59
13,00 00:48:27 00:03:50 00:03:50 15,7 20,26
14,00 00:50:26 00:01:59 00:01:59 30,3 -52,99
15,00 00:52:52 00:02:26 00:02:26 24,7 -33,65
16,00 00:55:26 00:02:34 00:02:34 23,4 -20,77
17,00 00:57:54 00:02:28 00:02:28 24,3 -21,54
18,00 01:00:27 00:02:33 00:02:33 23,5 -17,10
19,00 01:03:38 00:03:11 00:03:11 18,8 -14,23
20,00 01:10:16 00:06:38 00:06:38 9,0 92,18
21,00 01:14:59 00:04:43 00:04:43 12,7 33,60
22,00 01:19:48 00:04:49 00:04:49 12,5 40,38
23,00 01:23:15 00:03:27 00:03:27 17,4 -2,26
24,00 01:25:51 00:02:36 00:02:36 23,1 -39,88
25,00 01:27:52 00:02:01 00:02:01 29,8 -77,77
26,00 01:32:12 00:04:20 00:04:20 13,8 24,98
27,00 01:37:53 00:05:41 00:05:41 10,6 69,89
28,00 01:42:28 00:04:35 00:04:35 13,1 25,59
29,00 01:45:54 00:03:26 00:03:26 17,5 -7,41
30,00 01:48:53 00:02:59 00:02:59 20,1 -14,88
31,00 01:52:56 00:04:03 00:04:03 14,8 25,38
32,00 01:55:54 00:02:58 00:02:58 20,2 -28,63
33,00 01:58:47 00:02:53 00:02:53 20,8 -23,52
34,00 02:02:14 00:03:27 00:03:27 17,4 -21,88
35,00 02:06:42 00:04:28 00:04:28 13,4 22,72
36,00 02:10:17 00:03:35 00:03:35 16,7 -1,95
37,00 02:13:54 00:03:37 00:03:37 16,6 -3,92
38,00 02:17:36 00:03:42 00:03:42 16,2 -8,44
39,00 02:22:37 00:05:01 00:05:01 12,0 40,39
40,00 02:25:20 00:02:43 00:02:43 22,1 -40,25
41,00 02:27:55 00:02:35 00:02:35 23,2 -49,69
42,00 02:32:15 00:04:20 00:04:20 13,8 20,13
43,00 02:36:24 00:04:09 00:04:09 14,5 16,04
44,00 02:39:24 00:03:00 00:03:00 20,0 -24,58